createdAt,value
2019-01-08T00:00:03.820Z,79.01
2019-01-08T00:02:32.610Z,78.77
2019-01-08T00:05:00.792Z,78.69
2019-01-08T00:07:28.993Z,78.68
2019-01-08T00:09:57.174Z,78.74
2019-01-08T00:12:25.375Z,78.35
2019-01-08T00:14:53.557Z,78.13
2019-01-08T00:17:21.750Z,77.82
2019-01-08T00:19:49.936Z,77.75
2019-01-08T00:22:18.134Z,77.77
2019-01-08T00:24:46.329Z,77.78
2019-01-08T00:27:14.527Z,77.10
2019-01-08T00:29:42.715Z,77.34
2019-01-08T00:32:10.910Z,76.77
2019-01-08T00:34:39.098Z,76.95
2019-01-08T00:37:07.303Z,76.66
2019-01-08T00:39:35.491Z,76.41
2019-01-08T00:42:03.687Z,76.54
2019-01-08T00:44:31.875Z,76.29
2019-01-08T00:47:00.089Z,76.38
2019-01-08T00:49:28.274Z,76.34
2019-01-08T00:51:56.465Z,76.12
2019-01-08T00:54:24.652Z,76.20
2019-01-08T00:56:52.853Z,76.18
2019-01-08T00:59:21.041Z,75.85
2019-01-08T01:01:49.245Z,75.78
2019-01-08T01:04:17.426Z,75.53
2019-01-08T01:06:45.625Z,75.18
2019-01-08T01:09:13.814Z,75.25
2019-01-08T01:11:42.013Z,75.01
2019-01-08T01:14:10.198Z,75.06
2019-01-08T01:16:38.405Z,75.11
2019-01-08T01:19:06.598Z,75.18
2019-01-08T01:21:34.806Z,75.44
2019-01-08T01:24:02.988Z,75.25
2019-01-08T01:26:31.181Z,75.34
2019-01-08T01:29:00.263Z,75.29
2019-01-08T01:31:29.281Z,75.25
2019-01-08T01:33:57.462Z,75.25
2019-01-08T01:36:25.670Z,75.15
2019-01-08T01:38:53.843Z,75.26
2019-01-08T01:41:22.038Z,74.94
2019-01-08T01:43:50.226Z,75.76
2019-01-08T01:46:18.421Z,76.33
2019-01-08T01:48:46.613Z,76.60
2019-01-08T01:51:14.813Z,76.48
2019-01-08T01:53:42.999Z,76.44
2019-01-08T01:56:11.185Z,76.15
2019-01-08T01:58:39.383Z,76.09
2019-01-08T02:01:07.568Z,76.06
2019-01-08T02:03:35.766Z,75.79
2019-01-08T02:06:03.952Z,75.63
2019-01-08T02:08:32.156Z,75.56
2019-01-08T02:11:00.337Z,74.69
2019-01-08T02:13:28.538Z,74.83
2019-01-08T02:15:56.723Z,74.70
2019-01-08T02:18:24.929Z,74.41
2019-01-08T02:20:53.108Z,74.24
2019-01-08T02:23:21.310Z,74.15
2019-01-08T02:25:49.489Z,74.15
2019-01-08T02:28:37.120Z,74.11
2019-01-08T02:31:05.315Z,74.24
2019-01-08T02:33:33.512Z,74.56
2019-01-08T02:36:01.697Z,74.99
2019-01-08T02:41:05.273Z,75.45
2019-01-08T02:43:33.467Z,75.96
2019-01-08T02:46:01.675Z,76.12
2019-01-08T02:48:29.846Z,75.84
2019-01-08T02:50:58.031Z,76.31
2019-01-08T02:53:26.224Z,77.05
2019-01-08T02:55:54.414Z,77.72
2019-01-08T02:58:22.616Z,78.40
2019-01-08T03:00:50.893Z,78.95
2019-01-08T03:03:19.094Z,79.16
2019-01-08T03:06:27.418Z,79.77
2019-01-08T03:08:55.592Z,79.96
2019-01-08T03:11:23.778Z,80.04
2019-01-08T03:13:51.978Z,80.22
2019-01-08T03:16:20.163Z,80.41
2019-01-08T03:18:48.356Z,80.83
2019-01-08T03:21:16.539Z,81.01
2019-01-08T03:23:44.728Z,80.88
2019-01-08T03:26:12.918Z,80.90
2019-01-08T03:28:41.124Z,80.84
2019-01-08T03:31:09.314Z,80.84
2019-01-08T03:33:37.507Z,80.43
2019-01-08T03:36:05.690Z,80.66
2019-01-08T03:41:07.168Z,80.25
2019-01-08T03:43:35.365Z,80.11
2019-01-08T03:46:03.555Z,80.04
2019-01-08T03:48:31.740Z,80.03
2019-01-08T03:50:59.940Z,79.85
2019-01-08T03:53:28.121Z,80.21
2019-01-08T03:55:56.320Z,80.28
2019-01-08T03:58:24.508Z,80.44
2019-01-08T04:00:52.714Z,80.85
2019-01-08T04:03:20.895Z,80.79
2019-01-08T04:05:49.089Z,80.65
2019-01-08T04:08:17.277Z,80.83
2019-01-08T04:10:45.491Z,80.30
2019-01-08T04:13:13.668Z,80.08
2019-01-08T04:15:41.868Z,80.33
2019-01-08T04:18:10.055Z,80.22
2019-01-08T04:20:38.250Z,80.28
2019-01-08T04:23:06.433Z,79.86
2019-01-08T04:25:34.630Z,80.09
2019-01-08T04:28:02.819Z,79.89
2019-01-08T04:30:31.018Z,79.99
2019-01-08T04:32:59.202Z,80.11
2019-01-08T04:35:27.406Z,79.91
2019-01-08T04:37:55.593Z,79.95
2019-01-08T04:40:23.794Z,80.09
2019-01-08T04:42:51.977Z,79.79
2019-01-08T04:45:20.176Z,79.66
2019-01-08T04:47:48.363Z,79.67
2019-01-08T04:50:16.558Z,79.76
2019-01-08T04:52:44.748Z,79.82
2019-01-08T04:55:12.933Z,79.87
2019-01-08T04:57:41.130Z,80.20
2019-01-08T05:00:49.440Z,80.44
2019-01-08T05:03:17.626Z,80.50
2019-01-08T05:05:45.821Z,80.81
2019-01-08T05:08:14.012Z,80.79
2019-01-08T05:10:42.198Z,81.00
2019-01-08T05:13:10.399Z,81.23
2019-01-08T05:15:38.584Z,81.36
2019-01-08T05:18:06.784Z,81.66
2019-01-08T05:20:34.970Z,81.74
2019-01-08T05:23:03.160Z,81.76
2019-01-08T05:25:31.342Z,81.85
2019-01-08T05:28:39.648Z,82.18
2019-01-08T05:31:07.829Z,82.38
2019-01-08T05:33:36.015Z,82.60
2019-01-08T05:36:04.189Z,82.78
2019-01-08T05:38:32.377Z,82.97
2019-01-08T05:41:00.552Z,83.18
2019-01-08T05:43:28.743Z,83.32
2019-01-08T05:45:56.928Z,83.43
2019-01-08T05:48:25.119Z,83.49
2019-01-08T05:53:42.211Z,83.70
2019-01-08T05:56:10.369Z,83.77
2019-01-08T05:58:38.567Z,83.77
2019-01-08T06:01:06.747Z,83.44
2019-01-08T06:03:34.939Z,83.24
2019-01-08T06:06:03.121Z,83.36
2019-01-08T06:08:31.321Z,83.63
2019-01-08T06:10:59.496Z,83.51
2019-01-08T06:13:27.690Z,83.61
2019-01-08T06:15:55.874Z,83.57
2019-01-08T06:18:24.072Z,83.57
2019-01-08T06:20:52.249Z,83.43
2019-01-08T06:23:20.442Z,83.40
2019-01-08T06:29:02.580Z,83.35
2019-01-08T06:31:30.762Z,82.90
2019-01-08T06:33:58.963Z,82.91
2019-01-08T06:36:27.161Z,82.62
2019-01-08T06:38:55.343Z,82.81
2019-01-08T06:41:23.519Z,82.80
2019-01-08T06:43:51.718Z,82.83
2019-01-08T06:46:19.896Z,82.72
2019-01-08T06:48:48.446Z,82.74
2019-01-08T06:51:17.994Z,82.79
2019-01-08T06:53:46.190Z,82.38
2019-01-08T06:56:33.741Z,82.49
2019-01-08T06:59:01.928Z,82.54
2019-01-08T07:01:30.110Z,82.59
2019-01-08T07:03:58.301Z,83.00
2019-01-08T07:06:26.483Z,83.09
2019-01-08T07:09:34.788Z,83.05
2019-01-08T07:12:02.970Z,83.15
2019-01-08T07:14:31.169Z,83.25
2019-01-08T07:16:59.350Z,83.84
2019-01-08T07:19:27.554Z,83.79
2019-01-08T07:21:55.814Z,83.99
2019-01-08T07:24:24.009Z,84.14
2019-01-08T07:26:52.192Z,84.24
2019-01-08T07:29:20.459Z,84.04
2019-01-08T07:31:48.639Z,84.31
2019-01-08T07:34:16.827Z,84.46
2019-01-08T07:36:45.017Z,84.49
2019-01-08T07:39:13.209Z,84.64
2019-01-08T07:41:41.390Z,84.91
2019-01-08T07:44:09.580Z,85.12
2019-01-08T07:46:37.774Z,85.21
2019-01-08T07:49:05.943Z,84.73
2019-01-08T07:51:34.141Z,84.91
2019-01-08T07:54:02.320Z,84.71
2019-01-08T07:56:30.517Z,84.82
2019-01-08T07:58:58.702Z,84.90
2019-01-08T08:01:26.888Z,85.05
2019-01-08T08:03:55.078Z,84.41
2019-01-08T08:06:42.698Z,84.68
2019-01-08T08:09:10.874Z,84.91
2019-01-08T08:11:39.064Z,85.10
2019-01-08T08:14:07.249Z,85.11
2019-01-08T08:16:35.445Z,85.29
2019-01-08T08:19:03.630Z,85.24
2019-01-08T08:21:31.826Z,85.08
2019-01-08T08:24:00.004Z,84.65
2019-01-08T08:26:28.205Z,84.35
2019-01-08T08:29:15.809Z,84.11
2019-01-08T08:31:44.010Z,83.37
2019-01-08T08:34:12.190Z,83.25
2019-01-08T08:36:40.381Z,82.84
2019-01-08T08:39:08.567Z,82.87
2019-01-08T08:41:36.762Z,82.75
2019-01-08T08:44:04.937Z,82.70
2019-01-08T08:46:33.130Z,81.82
2019-01-08T08:49:01.308Z,82.08
2019-01-08T08:51:29.507Z,81.62
2019-01-08T08:53:57.690Z,81.48
2019-01-08T08:56:25.883Z,81.39
2019-01-08T08:58:54.067Z,81.46
2019-01-08T09:01:22.253Z,81.54
2019-01-08T09:03:50.434Z,81.36
2019-01-08T09:06:18.629Z,81.22
2019-01-08T09:08:46.808Z,81.22
2019-01-08T09:11:15.003Z,81.62
2019-01-08T09:13:43.190Z,81.37
2019-01-08T09:16:11.383Z,81.60
2019-01-08T09:18:39.566Z,81.73
2019-01-08T09:21:07.762Z,81.53
2019-01-08T09:23:35.944Z,81.76
2019-01-08T09:26:04.135Z,81.92
2019-01-08T09:28:32.321Z,82.09
2019-01-08T09:31:00.521Z,82.45
2019-01-08T09:33:28.693Z,82.33
2019-01-08T09:35:56.891Z,82.11
2019-01-08T09:38:25.065Z,81.67
2019-01-08T09:40:53.249Z,81.49
2019-01-08T09:43:21.467Z,81.45
2019-01-08T09:45:49.768Z,81.78
2019-01-08T09:48:17.973Z,81.59
2019-01-08T09:50:46.168Z,82.04
2019-01-08T09:53:14.365Z,82.50
2019-01-08T09:55:42.541Z,82.59
2019-01-08T09:58:10.740Z,82.19
2019-01-08T10:00:38.926Z,82.20
2019-01-08T10:03:07.117Z,82.29
2019-01-08T10:05:35.487Z,81.96
2019-01-08T10:08:03.696Z,81.88
2019-01-08T10:10:31.879Z,81.83
2019-01-08T10:13:00.070Z,82.17
2019-01-08T10:15:28.250Z,82.44
2019-01-08T10:17:56.440Z,82.61
2019-01-08T10:20:24.630Z,82.60
2019-01-08T10:22:52.824Z,82.54
2019-01-08T10:25:21.014Z,82.02
2019-01-08T10:27:49.211Z,81.71
2019-01-08T10:30:17.388Z,81.36
2019-01-08T10:32:45.585Z,81.63
2019-01-08T10:35:13.761Z,81.00
2019-01-08T10:37:42.023Z,80.99
2019-01-08T10:40:10.211Z,79.81
2019-01-08T10:42:38.402Z,79.88
2019-01-08T10:45:46.715Z,80.14
2019-01-08T10:48:14.902Z,79.50
2019-01-08T10:50:43.082Z,78.70
2019-01-08T10:53:11.275Z,78.78
2019-01-08T10:55:39.458Z,77.78
2019-01-08T10:58:07.648Z,76.96
2019-01-08T11:00:55.261Z,77.27
2019-01-08T11:03:23.442Z,77.29
2019-01-08T11:05:51.623Z,77.30
2019-01-08T11:08:19.810Z,76.57
2019-01-08T11:10:47.999Z,75.99
2019-01-08T11:13:16.187Z,75.92
2019-01-08T11:15:44.369Z,75.91
2019-01-08T11:18:12.568Z,76.13
2019-01-08T11:20:40.749Z,76.34
2019-01-08T11:23:09.067Z,75.95
2019-01-08T11:25:37.217Z,75.94
2019-01-08T11:28:05.408Z,75.07
2019-01-08T11:30:33.589Z,75.23
2019-01-08T11:33:01.784Z,74.79
2019-01-08T11:35:29.961Z,74.62
2019-01-08T11:37:58.151Z,74.44
2019-01-08T11:40:26.332Z,73.76
2019-01-08T11:42:54.660Z,73.57
2019-01-08T11:45:22.836Z,73.56
2019-01-08T11:47:51.015Z,73.09
2019-01-08T11:50:19.212Z,73.63
2019-01-08T11:52:55.043Z,73.50
2019-01-08T11:55:23.233Z,72.91
2019-01-08T11:57:51.414Z,72.70
2019-01-08T12:00:19.616Z,72.60
2019-01-08T12:02:48.173Z,73.32
2019-01-08T12:05:17.891Z,72.81
2019-01-08T12:07:46.069Z,72.93
2019-01-08T12:10:14.257Z,73.01
2019-01-08T12:12:42.435Z,72.53
2019-01-08T12:15:10.633Z,72.60
2019-01-08T12:17:38.820Z,72.96
2019-01-08T12:20:47.124Z,73.36
2019-01-08T12:23:15.301Z,73.18
2019-01-08T12:25:43.493Z,72.89
2019-01-08T12:28:11.684Z,72.79
2019-01-08T12:30:39.873Z,73.26
2019-01-08T12:33:08.071Z,73.48
2019-01-08T12:35:36.263Z,73.21
2019-01-08T12:38:04.445Z,73.51
2019-01-08T12:40:32.640Z,73.11
2019-01-08T12:43:00.820Z,73.55
2019-01-08T12:45:29.011Z,73.01
2019-01-08T12:48:16.621Z,73.15
2019-01-08T12:50:44.814Z,72.92
2019-01-08T12:53:12.996Z,73.26
2019-01-08T12:55:41.195Z,73.72
2019-01-08T12:58:09.379Z,73.66
2019-01-08T13:00:37.581Z,74.05
2019-01-08T13:03:05.769Z,73.98
2019-01-08T13:05:33.967Z,73.13
2019-01-08T13:08:02.146Z,72.88
2019-01-08T13:10:30.349Z,72.84
2019-01-08T13:12:58.531Z,72.71
2019-01-08T13:15:26.723Z,73.07
2019-01-08T13:17:54.911Z,72.99
2019-01-08T13:20:23.105Z,72.34
2019-01-08T13:22:51.281Z,72.71
2019-01-08T13:25:19.467Z,72.55
2019-01-08T13:27:47.645Z,72.39
2019-01-08T13:30:15.841Z,72.61
2019-01-08T13:32:44.021Z,72.87
2019-01-08T13:35:12.220Z,72.79
2019-01-08T13:37:40.395Z,73.13
2019-01-08T13:40:08.589Z,73.59
2019-01-08T13:42:36.763Z,74.02
2019-01-08T13:45:45.081Z,74.49
2019-01-08T13:48:13.260Z,74.46
2019-01-08T13:50:41.448Z,74.82
2019-01-08T13:53:09.634Z,75.25
2019-01-08T13:55:37.834Z,75.24
2019-01-08T13:58:06.016Z,75.34
2019-01-08T14:00:34.214Z,75.49
2019-01-08T14:03:02.395Z,75.41
2019-01-08T14:05:30.593Z,75.82
2019-01-08T14:08:17.894Z,75.47
2019-01-08T14:10:46.094Z,74.62
2019-01-08T14:13:14.280Z,73.88
2019-01-08T14:15:42.475Z,73.30
2019-01-08T14:18:10.658Z,72.67
2019-01-08T14:20:38.869Z,72.81
2019-01-08T14:23:07.050Z,72.45
2019-01-08T14:25:35.250Z,71.50
2019-01-08T14:28:03.438Z,70.97
2019-01-08T14:30:31.634Z,69.71
2019-01-08T14:32:59.815Z,68.46
2019-01-08T14:35:28.010Z,68.14
2019-01-08T14:37:56.189Z,68.44
2019-01-08T14:40:24.386Z,68.24
2019-01-08T14:42:52.565Z,68.46
2019-01-08T14:45:20.760Z,69.08
2019-01-08T14:47:48.949Z,68.45
2019-01-08T14:50:17.146Z,68.41
2019-01-08T14:52:45.332Z,68.72
2019-01-08T14:55:13.532Z,68.41
2019-01-08T14:57:41.726Z,68.17
2019-01-08T15:00:50.051Z,68.35
2019-01-08T15:03:18.235Z,68.17
2019-01-08T15:05:46.434Z,67.62
2019-01-08T15:08:14.627Z,67.98
2019-01-08T15:10:42.823Z,67.85
2019-01-08T15:16:24.606Z,67.41
2019-01-08T15:18:52.799Z,67.05
2019-01-08T15:21:20.992Z,67.50
2019-01-08T15:23:49.199Z,67.35
2019-01-08T15:26:17.394Z,67.59
2019-01-08T15:28:45.574Z,67.98
2019-01-08T15:31:13.772Z,68.04
2019-01-08T15:33:41.969Z,68.37
2019-01-08T15:36:10.154Z,68.54
2019-01-08T15:38:57.448Z,68.75
2019-01-08T15:41:25.642Z,68.56
2019-01-08T15:43:53.832Z,68.52
2019-01-08T15:49:15.198Z,68.60
2019-01-08T15:51:43.431Z,68.74
2019-01-08T15:54:11.589Z,68.73
2019-01-08T15:56:39.781Z,68.94
2019-01-08T15:59:27.073Z,69.16
2019-01-08T16:01:55.281Z,69.36
2019-01-08T16:04:23.461Z,69.41
2019-01-08T16:06:51.669Z,69.35
2019-01-08T16:09:19.859Z,69.62
2019-01-08T16:14:21.511Z,69.70
2019-01-08T16:16:49.701Z,69.75
2019-01-08T16:19:17.888Z,69.79
2019-01-08T16:21:46.091Z,70.05
2019-01-08T16:24:14.276Z,70.10
2019-01-08T16:26:42.464Z,69.84
2019-01-08T16:29:29.771Z,70.01
2019-01-08T16:31:57.985Z,69.18
2019-01-08T16:34:26.176Z,68.83
2019-01-08T16:36:54.357Z,68.73
2019-01-08T16:39:41.915Z,68.72
2019-01-08T16:42:10.116Z,68.24
2019-01-08T16:44:38.302Z,68.04
2019-01-08T16:49:41.779Z,67.65
2019-01-08T16:52:29.423Z,67.71
2019-01-08T16:54:57.603Z,67.12
2019-01-08T16:57:45.227Z,67.12
2019-01-08T17:00:13.485Z,66.49
2019-01-08T17:02:41.700Z,66.52
2019-01-08T17:05:09.915Z,66.41
2019-01-08T17:07:38.056Z,66.31
2019-01-08T17:10:46.366Z,65.72
2019-01-08T17:13:14.556Z,65.68
2019-01-08T17:15:42.739Z,65.84
2019-01-08T17:18:10.934Z,65.42
2019-01-08T17:20:39.124Z,65.18
2019-01-08T17:23:07.323Z,65.09
2019-01-08T17:25:35.505Z,65.09
2019-01-08T17:28:03.717Z,65.30
2019-01-08T17:30:31.896Z,65.40
2019-01-08T17:33:00.077Z,65.10
2019-01-08T17:35:28.281Z,65.38
2019-01-08T17:37:56.461Z,65.81
2019-01-08T17:40:24.659Z,65.79
2019-01-08T17:43:11.959Z,66.10
2019-01-08T17:45:40.151Z,66.38
2019-01-08T17:48:08.337Z,66.19
2019-01-08T17:50:36.563Z,65.92
2019-01-08T17:53:04.714Z,65.83
2019-01-08T17:55:32.906Z,65.97
2019-01-08T17:58:39.900Z,65.98
2019-01-08T18:01:48.199Z,65.52
2019-01-08T18:04:16.394Z,66.07
2019-01-08T18:06:44.656Z,65.09
2019-01-08T18:09:52.974Z,65.17
2019-01-08T18:15:08.412Z,64.52
2019-01-08T18:20:50.610Z,63.68
2019-01-08T18:23:18.801Z,62.83
2019-01-08T18:25:47.004Z,62.84
2019-01-08T18:28:15.191Z,62.76
2019-01-08T18:33:16.798Z,63.09
2019-01-08T18:35:44.995Z,63.12
2019-01-08T18:38:13.189Z,63.55
2019-01-08T18:40:41.384Z,63.46
2019-01-08T18:43:14.072Z,63.59
2019-01-08T18:45:39.492Z,63.58
2019-01-08T18:48:27.040Z,63.15
2019-01-08T18:50:55.242Z,63.36
2019-01-08T18:56:10.668Z,63.25
2019-01-08T18:58:38.850Z,63.00
2019-01-08T19:01:07.046Z,63.05
2019-01-08T19:03:35.230Z,62.98
2019-01-08T19:09:16.222Z,63.35
2019-01-08T19:11:44.423Z,63.29
2019-01-08T19:14:31.967Z,63.49
2019-01-08T19:17:00.167Z,63.95
2019-01-08T19:19:28.359Z,64.01
2019-01-08T19:21:56.559Z,63.98
2019-01-08T19:24:24.740Z,64.27
2019-01-08T19:27:33.048Z,64.97
2019-01-08T19:30:01.248Z,64.91
2019-01-08T19:32:29.438Z,64.74
2019-01-08T19:34:57.619Z,64.85
2019-01-08T19:37:25.814Z,65.04
2019-01-08T19:39:54.003Z,64.85
2019-01-08T19:42:22.198Z,64.65
2019-01-08T19:44:50.390Z,64.57
2019-01-08T19:47:18.590Z,64.72
2019-01-08T19:49:46.774Z,65.25
2019-01-08T19:52:14.971Z,65.46
2019-01-08T19:54:43.155Z,65.66
2019-01-08T19:57:11.355Z,66.27
2019-01-08T20:00:19.699Z,66.21
2019-01-08T20:03:07.527Z,66.74
2019-01-08T20:05:35.720Z,67.10
2019-01-08T20:11:17.651Z,67.93
2019-01-08T20:13:45.836Z,68.36
2019-01-08T20:16:14.028Z,68.72
2019-01-08T20:18:45.295Z,69.07
2019-01-08T20:21:22.986Z,69.61
2019-01-08T20:23:51.178Z,70.02
2019-01-08T20:28:53.152Z,70.43
2019-01-08T20:31:21.344Z,70.88
2019-01-08T20:33:49.525Z,71.15
2019-01-08T20:36:17.726Z,71.50
2019-01-08T20:38:45.903Z,72.21
2019-01-08T20:41:14.102Z,72.77
2019-01-08T20:43:42.291Z,73.19
2019-01-08T20:46:10.566Z,73.68
2019-01-08T20:48:38.750Z,73.65
2019-01-08T20:51:06.953Z,73.98
2019-01-08T20:53:35.135Z,74.21
2019-01-08T20:56:03.322Z,74.29
2019-01-08T20:58:50.629Z,74.67
2019-01-08T21:01:18.831Z,74.64
2019-01-08T21:03:47.016Z,74.83
2019-01-08T21:06:15.329Z,75.27
2019-01-08T21:08:43.542Z,74.72
2019-01-08T21:11:31.100Z,74.78
2019-01-08T21:13:59.280Z,74.67
2019-01-08T21:16:27.517Z,74.30
2019-01-08T21:18:55.706Z,74.42
2019-01-08T21:21:23.886Z,74.32
2019-01-08T21:24:11.448Z,74.31
2019-01-08T21:26:39.640Z,74.19
2019-01-08T21:29:07.828Z,74.26
2019-01-08T21:31:36.018Z,74.12
2019-01-08T21:34:23.579Z,74.32
2019-01-08T21:36:51.783Z,74.61
2019-01-08T21:42:26.634Z,74.39
2019-01-08T21:44:54.824Z,74.47
2019-01-08T21:47:23.017Z,74.27
2019-01-08T21:49:51.211Z,74.35
2019-01-08T21:52:19.417Z,74.16
2019-01-08T21:54:47.599Z,73.94
2019-01-08T21:57:15.801Z,73.77
2019-01-08T21:59:43.991Z,73.42
2019-01-08T22:02:12.194Z,73.35
2019-01-08T22:04:40.365Z,72.96
2019-01-08T22:07:08.558Z,73.41
2019-01-08T22:09:36.750Z,73.04
2019-01-08T22:12:04.938Z,73.24
2019-01-08T22:14:33.140Z,72.18
2019-01-08T22:17:01.328Z,71.71
2019-01-08T22:19:29.522Z,71.57
2019-01-08T22:21:57.701Z,71.72
2019-01-08T22:24:25.957Z,71.37
2019-01-08T22:26:54.138Z,71.41
2019-01-08T22:29:22.334Z,70.59
2019-01-08T22:31:50.523Z,70.68
2019-01-08T22:34:18.715Z,70.82
2019-01-08T22:36:46.899Z,69.97
2019-01-08T22:39:15.095Z,70.31
2019-01-08T22:41:43.282Z,69.88
2019-01-08T22:44:11.479Z,70.11
2019-01-08T22:46:39.660Z,69.88
2019-01-08T22:49:07.855Z,69.61
2019-01-08T22:51:36.043Z,69.55
2019-01-08T22:56:39.588Z,69.04
2019-01-08T22:59:07.787Z,68.32
2019-01-08T23:04:24.855Z,68.46
2019-01-08T23:07:12.474Z,67.62
2019-01-08T23:09:40.674Z,67.24
2019-01-08T23:12:08.858Z,66.95
2019-01-08T23:14:37.053Z,66.71
2019-01-08T23:17:05.233Z,66.37
2019-01-08T23:19:33.430Z,67.00
2019-01-08T23:22:01.615Z,66.58
2019-01-08T23:24:29.808Z,66.41
2019-01-08T23:26:57.989Z,66.30
2019-01-08T23:29:26.189Z,65.49
2019-01-08T23:31:54.375Z,65.51
2019-01-08T23:34:22.565Z,64.49
2019-01-08T23:36:50.750Z,64.85
2019-01-08T23:39:18.945Z,64.94
2019-01-08T23:41:47.139Z,65.36
2019-01-08T23:44:15.341Z,64.80
2019-01-08T23:46:43.522Z,64.43
2019-01-08T23:49:11.712Z,64.49
2019-01-08T23:51:39.893Z,64.20
2019-01-08T23:54:08.097Z,64.44
2019-01-08T23:56:36.269Z,64.50
2019-01-08T23:59:04.466Z,64.54
